createdAt,value
2019-06-26T00:00:26.683Z,101509.86
2019-06-26T00:01:34.038Z,101513.22
2019-06-26T00:02:42.426Z,101510.20
2019-06-26T00:03:49.388Z,101510.70
2019-06-26T00:04:57.149Z,101515.83
2019-06-26T00:06:04.751Z,101512.74
2019-06-26T00:07:12.697Z,101514.17
2019-06-26T00:08:20.281Z,101510.34
2019-06-26T00:09:28.547Z,101515.73
2019-06-26T00:10:35.680Z,101514.05
2019-06-26T00:11:43.201Z,101514.05
2019-06-26T00:12:50.145Z,101516.83
2019-06-26T00:13:58.250Z,101522.81
2019-06-26T00:15:05.473Z,101523.89
2019-06-26T00:16:13.444Z,101520.45
2019-06-26T00:17:20.373Z,101526.54
2019-06-26T00:18:28.925Z,101524.39
2019-06-26T00:19:36.028Z,101533.37
2019-06-26T00:20:43.937Z,101531.34
2019-06-26T00:21:50.774Z,101533.49
2019-06-26T00:22:59.251Z,101530.97
2019-06-26T00:24:06.346Z,101534.69
2019-06-26T00:25:13.981Z,101534.58
2019-06-26T00:26:21.117Z,101534.58
2019-06-26T00:27:29.743Z,101533.00
2019-06-26T00:28:36.919Z,101537.33
2019-06-26T00:29:44.546Z,101536.84
2019-06-26T00:30:51.297Z,101536.02
2019-06-26T00:31:58.989Z,101536.62
2019-06-26T00:33:05.953Z,101535.42
2019-06-26T00:34:13.521Z,101539.25
2019-06-26T00:35:20.368Z,101536.36
2019-06-26T00:36:28.947Z,101534.80
2019-06-26T00:37:35.798Z,101536.22
2019-06-26T00:38:44.202Z,101534.42
2019-06-26T00:39:51.533Z,101528.08
2019-06-26T00:41:00.073Z,101535.52
2019-06-26T00:42:06.804Z,101530.86
2019-06-26T00:43:14.669Z,101530.97
2019-06-26T00:44:21.567Z,101533.71
2019-06-26T00:45:30.039Z,101536.94
2019-06-26T00:46:37.702Z,101533.00
2019-06-26T00:47:45.643Z,101532.40
2019-06-26T00:48:54.345Z,101534.05
2019-06-26T00:50:01.967Z,101533.45
2019-06-26T00:51:08.807Z,101530.48
2019-06-26T00:52:16.331Z,101534.27
2019-06-26T00:53:23.098Z,101534.27
2019-06-26T00:54:30.861Z,101534.38
2019-06-26T00:55:38.065Z,101528.78
2019-06-26T00:56:45.825Z,101525.06
2019-06-26T00:57:52.585Z,101531.86
2019-06-26T00:59:02.302Z,101531.75
2019-06-26T01:00:10.376Z,101527.35
2019-06-26T01:01:18.304Z,101532.94
2019-06-26T01:02:25.122Z,101527.91
2019-06-26T01:03:33.215Z,101530.08
2019-06-26T01:04:42.627Z,101530.69
2019-06-26T01:05:50.532Z,101531.25
2019-06-26T01:06:57.535Z,101530.80
2019-06-26T01:08:05.231Z,101530.80
2019-06-26T01:09:12.387Z,101535.95
2019-06-26T01:10:21.990Z,101535.80
2019-06-26T01:11:29.958Z,101530.31
2019-06-26T01:12:38.356Z,101531.74
2019-06-26T01:13:57.596Z,101535.34
2019-06-26T01:14:55.112Z,101533.66
2019-06-26T01:16:02.483Z,101536.88
2019-06-26T01:17:10.025Z,101535.19
2019-06-26T01:18:17.198Z,101537.06
2019-06-26T01:19:25.169Z,101538.86
2019-06-26T01:20:32.432Z,101530.72
2019-06-26T01:21:40.073Z,101537.77
2019-06-26T01:22:47.165Z,101535.95
2019-06-26T01:23:55.842Z,101534.30
2019-06-26T01:25:03.845Z,101531.05
2019-06-26T01:26:11.850Z,101529.25
2019-06-26T01:27:18.622Z,101533.91
2019-06-26T01:28:27.527Z,101535.33
2019-06-26T01:29:34.378Z,101534.84
2019-06-26T01:30:42.135Z,101530.91
2019-06-26T01:31:49.117Z,101537.23
2019-06-26T01:32:57.117Z,101537.70
2019-06-26T01:34:04.263Z,101540.17
2019-06-26T01:35:12.408Z,101535.62
2019-06-26T01:36:19.534Z,101542.33
2019-06-26T01:37:27.647Z,101543.75
2019-06-26T01:38:34.432Z,101540.64
2019-06-26T01:39:41.990Z,101542.33
2019-06-26T01:40:48.734Z,101541.95
2019-06-26T01:41:56.742Z,101543.05
2019-06-26T01:43:04.064Z,101538.84
2019-06-26T01:44:15.389Z,101543.86
2019-06-26T01:45:20.949Z,101539.09
2019-06-26T01:46:29.857Z,101540.02
2019-06-26T01:47:37.036Z,101543.03
2019-06-26T01:48:45.034Z,101544.56
2019-06-26T01:49:52.235Z,101532.02
2019-06-26T01:51:01.069Z,101541.55
2019-06-26T01:52:07.845Z,101540.73
2019-06-26T01:53:15.389Z,101540.48
2019-06-26T01:54:22.474Z,101544.05
2019-06-26T01:55:30.579Z,101539.73
2019-06-26T01:56:37.407Z,101542.84
2019-06-26T01:57:45.292Z,101540.34
2019-06-26T01:58:52.733Z,101542.63
2019-06-26T02:00:00.802Z,101546.91
2019-06-26T02:01:08.532Z,101544.16
2019-06-26T02:02:16.182Z,101543.44
2019-06-26T02:03:23.414Z,101544.75
2019-06-26T02:04:33.380Z,101543.65
2019-06-26T02:05:40.638Z,101546.04
2019-06-26T02:06:48.704Z,101546.52
2019-06-26T02:07:56.464Z,101547.53
2019-06-26T02:09:04.100Z,101555.52
2019-06-26T02:10:11.767Z,101550.62
2019-06-26T02:11:19.383Z,101548.92
2019-06-26T02:12:26.593Z,101553.83
2019-06-26T02:13:34.324Z,101554.90
2019-06-26T02:14:41.873Z,101555.84
2019-06-26T02:15:49.467Z,101556.74
2019-06-26T02:16:56.748Z,101557.81
2019-06-26T02:18:04.974Z,101563.24
2019-06-26T02:19:12.836Z,101561.89
2019-06-26T02:20:20.754Z,101559.00
2019-06-26T02:21:27.607Z,101558.86
2019-06-26T02:22:36.343Z,101568.48
2019-06-26T02:23:43.702Z,101558.69
2019-06-26T02:24:51.238Z,101563.34
2019-06-26T02:25:59.692Z,101562.27
2019-06-26T02:27:08.324Z,101561.30
2019-06-26T02:28:15.075Z,101569.37
2019-06-26T02:29:23.017Z,101571.04
2019-06-26T02:30:30.721Z,101569.37
2019-06-26T02:31:38.274Z,101568.69
2019-06-26T02:32:45.056Z,101573.21
2019-06-26T02:33:53.013Z,101564.03
2019-06-26T02:35:01.513Z,101569.86
2019-06-26T02:36:09.078Z,101571.38
2019-06-26T02:37:16.552Z,101566.76
2019-06-26T02:38:24.810Z,101565.34
2019-06-26T02:39:32.160Z,101564.13
2019-06-26T02:40:39.824Z,101568.69
2019-06-26T02:41:46.607Z,101568.80
2019-06-26T02:42:54.443Z,101570.20
2019-06-26T02:44:01.895Z,101572.94
2019-06-26T02:45:10.719Z,101569.58
2019-06-26T02:46:17.850Z,101572.80
2019-06-26T02:47:25.719Z,101574.34
2019-06-26T02:48:32.806Z,101579.34
2019-06-26T02:49:40.951Z,101577.20
2019-06-26T02:50:48.524Z,101578.77
2019-06-26T02:51:56.323Z,101584.02
2019-06-26T02:53:04.338Z,101584.59
2019-06-26T02:54:11.977Z,101585.32
2019-06-26T02:55:19.351Z,101587.02
2019-06-26T02:56:27.188Z,101589.50
2019-06-26T02:57:34.593Z,101583.63
2019-06-26T02:58:42.484Z,101583.41
2019-06-26T02:59:49.332Z,101588.76
2019-06-26T03:00:56.992Z,101592.69
2019-06-26T03:02:04.035Z,101587.98
2019-06-26T03:03:11.788Z,101591.87
2019-06-26T03:04:19.217Z,101598.73
2019-06-26T03:05:27.222Z,101599.53
2019-06-26T03:06:34.093Z,101591.97
2019-06-26T03:07:42.397Z,101596.73
2019-06-26T03:08:49.680Z,101590.52
2019-06-26T03:09:57.943Z,101597.06
2019-06-26T03:11:05.020Z,101593.81
2019-06-26T03:12:12.537Z,101598.67
2019-06-26T03:13:19.305Z,101603.72
2019-06-26T03:14:27.533Z,101601.58
2019-06-26T03:15:34.731Z,101604.45
2019-06-26T03:16:42.261Z,101605.12
2019-06-26T03:17:55.242Z,101607.02
2019-06-26T03:18:58.883Z,101610.02
2019-06-26T03:20:06.666Z,101610.27
2019-06-26T03:21:14.912Z,101614.45
2019-06-26T03:22:22.313Z,101614.58
2019-06-26T03:23:30.516Z,101612.80
2019-06-26T03:24:37.270Z,101610.17
2019-06-26T03:25:44.806Z,101613.14
2019-06-26T03:26:51.838Z,101613.52
2019-06-26T03:28:00.152Z,101620.91
2019-06-26T03:29:07.426Z,101622.95
2019-06-26T03:30:15.533Z,101623.42
2019-06-26T03:31:22.305Z,101627.11
2019-06-26T03:32:29.959Z,101628.32
2019-06-26T03:33:37.009Z,101624.84
2019-06-26T03:34:44.687Z,101627.36
2019-06-26T03:35:51.872Z,101638.56
2019-06-26T03:36:59.852Z,101628.37
2019-06-26T03:38:07.104Z,101632.59
2019-06-26T03:39:14.664Z,101633.95
2019-06-26T03:40:22.063Z,101637.64
2019-06-26T03:41:30.221Z,101637.98
2019-06-26T03:42:37.254Z,101641.82
2019-06-26T03:43:45.128Z,101636.67
2019-06-26T03:44:51.872Z,101638.37
2019-06-26T03:45:59.820Z,101644.92
2019-06-26T03:47:06.701Z,101647.78
2019-06-26T03:48:14.618Z,101652.34
2019-06-26T03:49:21.584Z,101649.82
2019-06-26T03:50:29.684Z,101649.72
2019-06-26T03:51:36.487Z,101649.15
2019-06-26T03:52:44.013Z,101654.58
2019-06-26T03:53:50.925Z,101655.75
2019-06-26T03:54:59.224Z,101651.95
2019-06-26T03:56:06.409Z,101654.67
2019-06-26T03:57:14.311Z,101662.79
2019-06-26T03:58:21.381Z,101657.93
2019-06-26T03:59:29.325Z,101659.81
2019-06-26T04:00:41.208Z,101660.17
2019-06-26T04:01:49.119Z,101665.70
2019-06-26T04:02:56.731Z,101665.06
2019-06-26T04:04:04.688Z,101670.30
2019-06-26T04:05:11.478Z,101666.91
2019-06-26T04:06:19.014Z,101672.64
2019-06-26T04:07:26.271Z,101671.42
2019-06-26T04:08:33.933Z,101674.88
2019-06-26T04:09:40.978Z,101676.23
2019-06-26T04:10:48.522Z,101674.70
2019-06-26T04:11:55.325Z,101681.31
2019-06-26T04:13:04.223Z,101680.86
2019-06-26T04:14:11.336Z,101677.86
2019-06-26T04:15:19.275Z,101678.55
2019-06-26T04:16:26.758Z,101681.95
2019-06-26T04:17:34.381Z,101675.48
2019-06-26T04:18:41.587Z,101681.80
2019-06-26T04:19:49.157Z,101689.53
2019-06-26T04:20:55.998Z,101685.79
2019-06-26T04:22:03.621Z,101693.11
2019-06-26T04:23:10.730Z,101695.72
2019-06-26T04:24:18.257Z,101700.89
2019-06-26T04:25:25.415Z,101695.97
2019-06-26T04:26:33.861Z,101697.43
2019-06-26T04:27:40.994Z,101696.64
2019-06-26T04:28:48.542Z,101700.00
2019-06-26T04:29:55.801Z,101693.92
2019-06-26T04:31:03.500Z,101697.86
2019-06-26T04:32:10.488Z,101698.79
2019-06-26T04:33:18.412Z,101699.55
2019-06-26T04:34:25.834Z,101699.36
2019-06-26T04:35:33.884Z,101695.17
2019-06-26T04:36:40.665Z,101698.91
2019-06-26T04:37:48.495Z,101704.66
2019-06-26T04:38:55.682Z,101699.78
2019-06-26T04:40:03.355Z,101707.80
2019-06-26T04:41:10.111Z,101707.70
2019-06-26T04:42:17.663Z,101704.43
2019-06-26T04:43:24.985Z,101708.37
2019-06-26T04:44:32.910Z,101706.68
2019-06-26T04:45:39.765Z,101709.30
2019-06-26T04:46:47.320Z,101713.91
2019-06-26T04:47:54.116Z,101721.61
2019-06-26T04:49:02.006Z,101714.84
2019-06-26T04:50:10.568Z,101724.93
2019-06-26T04:51:18.626Z,101727.10
2019-06-26T04:52:25.530Z,101725.82
2019-06-26T04:53:33.658Z,101724.05
2019-06-26T04:54:40.819Z,101731.66
2019-06-26T04:55:48.403Z,101733.70
2019-06-26T04:56:55.253Z,101732.77
2019-06-26T04:58:02.859Z,101732.73
2019-06-26T04:59:09.569Z,101730.94
2019-06-26T05:00:21.789Z,101735.09
2019-06-26T05:01:27.915Z,101738.30
2019-06-26T05:02:35.979Z,101737.09
2019-06-26T05:03:42.743Z,101734.19
2019-06-26T05:04:50.273Z,101734.31
2019-06-26T05:05:57.245Z,101735.91
2019-06-26T05:07:05.461Z,101741.27
2019-06-26T05:08:12.515Z,101737.69
2019-06-26T05:09:20.143Z,101736.11
2019-06-26T05:10:27.041Z,101742.41
2019-06-26T05:11:34.913Z,101745.04
2019-06-26T05:12:41.718Z,101744.20
2019-06-26T05:13:49.633Z,101744.26
2019-06-26T05:14:57.534Z,101747.02
2019-06-26T05:16:14.888Z,101748.91
2019-06-26T05:17:14.268Z,101752.84
2019-06-26T05:18:21.875Z,101759.13
2019-06-26T05:19:28.825Z,101757.46
2019-06-26T05:20:37.019Z,101758.97
2019-06-26T05:21:44.146Z,101761.30
2019-06-26T05:22:51.754Z,101760.06
2019-06-26T05:23:58.600Z,101761.24
2019-06-26T05:25:06.974Z,101765.91
2019-06-26T05:26:14.042Z,101768.30
2019-06-26T05:27:21.638Z,101765.11
2019-06-26T05:28:28.781Z,101763.44
2019-06-26T05:29:36.637Z,101766.47
2019-06-26T05:30:43.371Z,101775.55
2019-06-26T05:31:50.982Z,101776.61
2019-06-26T05:32:57.982Z,101777.28
2019-06-26T05:34:05.833Z,101776.33
2019-06-26T05:35:12.892Z,101775.87
2019-06-26T05:36:20.444Z,101776.45
2019-06-26T05:37:27.407Z,101777.23
2019-06-26T05:38:35.059Z,101773.45
2019-06-26T05:39:43.218Z,101776.50
2019-06-26T05:40:51.811Z,101778.55
2019-06-26T05:41:59.364Z,101782.63
2019-06-26T05:43:06.977Z,101788.08
2019-06-26T05:44:14.061Z,101785.35
2019-06-26T05:45:23.390Z,101785.09
2019-06-26T05:46:31.909Z,101787.40
2019-06-26T05:47:40.055Z,101782.73
2019-06-26T05:48:47.272Z,101785.25
2019-06-26T05:49:55.452Z,101789.83
2019-06-26T05:51:03.786Z,101796.92
2019-06-26T05:52:11.691Z,101789.88
2019-06-26T05:53:18.773Z,101800.25
2019-06-26T05:54:26.783Z,101795.20
2019-06-26T05:55:33.995Z,101796.70
2019-06-26T05:56:45.162Z,101795.17
2019-06-26T05:57:50.515Z,101792.55
2019-06-26T05:58:58.620Z,101790.15
2019-06-26T06:00:06.755Z,101790.20
2019-06-26T06:01:14.335Z,101793.47
2019-06-26T06:02:21.438Z,101792.89
2019-06-26T06:03:29.555Z,101792.66
2019-06-26T06:04:37.009Z,101789.88
2019-06-26T06:05:44.536Z,101786.81
2019-06-26T06:06:51.298Z,101789.92
2019-06-26T06:07:59.243Z,101789.83
2019-06-26T06:09:07.737Z,101790.98
2019-06-26T06:10:15.956Z,101796.00
2019-06-26T06:11:22.822Z,101797.84
2019-06-26T06:12:30.642Z,101794.88
2019-06-26T06:13:37.857Z,101797.17
2019-06-26T06:14:45.478Z,101799.02
2019-06-26T06:15:52.737Z,101797.27
2019-06-26T06:17:01.342Z,101797.45
2019-06-26T06:18:08.699Z,101796.94
2019-06-26T06:19:16.592Z,101803.16
2019-06-26T06:20:34.795Z,101807.43
2019-06-26T06:21:42.969Z,101810.44
2019-06-26T06:22:50.148Z,101811.89
2019-06-26T06:23:58.219Z,101812.42
2019-06-26T06:25:06.023Z,101819.14
2019-06-26T06:26:13.644Z,101819.05
2019-06-26T06:27:20.783Z,101817.55
2019-06-26T06:28:28.847Z,101815.59
2019-06-26T06:29:35.863Z,101815.59
2019-06-26T06:30:43.423Z,101814.03
2019-06-26T06:31:50.185Z,101815.11
2019-06-26T06:32:58.249Z,101820.36
2019-06-26T06:34:05.573Z,101818.14
2019-06-26T06:35:13.975Z,101819.98
2019-06-26T06:36:21.602Z,101823.24
2019-06-26T06:37:29.674Z,101822.56
2019-06-26T06:38:36.484Z,101821.35
2019-06-26T06:39:44.051Z,101819.98
2019-06-26T06:40:50.838Z,101824.83
2019-06-26T06:41:58.784Z,101824.45
2019-06-26T06:43:05.593Z,101823.44
2019-06-26T06:44:13.115Z,101829.16
2019-06-26T06:45:22.263Z,101833.59
2019-06-26T06:46:29.945Z,101830.09
2019-06-26T06:47:37.285Z,101833.50
2019-06-26T06:48:45.195Z,101834.37
2019-06-26T06:49:52.310Z,101838.55
2019-06-26T06:51:00.211Z,101841.08
2019-06-26T06:52:07.171Z,101842.72
2019-06-26T06:53:15.106Z,101839.72
2019-06-26T06:54:22.154Z,101841.78
2019-06-26T06:55:31.645Z,101845.42
2019-06-26T06:56:38.641Z,101853.35
2019-06-26T06:57:46.187Z,101850.84
2019-06-26T06:58:52.923Z,101851.43
2019-06-26T07:00:00.963Z,101855.44
2019-06-26T07:01:08.611Z,101854.23
2019-06-26T07:02:16.530Z,101853.47
2019-06-26T07:03:23.902Z,101856.20
2019-06-26T07:04:32.101Z,101857.86
2019-06-26T07:05:39.261Z,101853.72
2019-06-26T07:06:47.108Z,101849.84
2019-06-26T07:07:54.267Z,101848.56
2019-06-26T07:09:01.978Z,101841.84
2019-06-26T07:10:10.952Z,101842.36
2019-06-26T07:11:18.523Z,101843.16
2019-06-26T07:12:26.097Z,101842.84
2019-06-26T07:13:34.321Z,101847.58
2019-06-26T07:14:41.444Z,101853.06
2019-06-26T07:15:48.978Z,101853.53
2019-06-26T07:16:56.097Z,101857.48
2019-06-26T07:18:04.105Z,101862.31
2019-06-26T07:19:11.162Z,101856.21
2019-06-26T07:20:19.201Z,101862.70
2019-06-26T07:21:26.461Z,101864.03
2019-06-26T07:22:34.594Z,101865.16
2019-06-26T07:23:41.321Z,101876.93
2019-06-26T07:24:49.008Z,101875.20
2019-06-26T07:25:55.819Z,101884.02
2019-06-26T07:27:03.577Z,101881.30
2019-06-26T07:28:10.346Z,101884.41
2019-06-26T07:29:17.929Z,101878.47
2019-06-26T07:30:25.151Z,101884.80
2019-06-26T07:31:33.070Z,101882.42
2019-06-26T07:32:39.883Z,101883.03
2019-06-26T07:33:47.461Z,101882.17
2019-06-26T07:34:54.288Z,101887.48
2019-06-26T07:36:02.616Z,101886.88
2019-06-26T07:37:09.467Z,101877.55
2019-06-26T07:38:17.085Z,101881.52
2019-06-26T07:39:23.862Z,101884.27
2019-06-26T07:40:31.601Z,101887.83
2019-06-26T07:41:38.848Z,101884.84
2019-06-26T07:42:46.968Z,101886.31
2019-06-26T07:43:53.892Z,101892.27
2019-06-26T07:45:02.303Z,101888.42
2019-06-26T07:46:09.146Z,101897.34
2019-06-26T07:47:23.156Z,101897.57
2019-06-26T07:48:25.693Z,101897.23
2019-06-26T07:49:33.747Z,101901.41
2019-06-26T07:50:40.533Z,101906.44
2019-06-26T07:51:48.221Z,101903.95
2019-06-26T07:52:54.983Z,101903.69
2019-06-26T07:54:03.314Z,101911.11
2019-06-26T07:55:12.333Z,101904.18
2019-06-26T07:56:20.108Z,101906.09
2019-06-26T07:57:26.961Z,101906.44
2019-06-26T07:58:35.436Z,101905.62
2019-06-26T07:59:42.566Z,101909.45
2019-06-26T08:00:50.119Z,101910.77
2019-06-26T08:01:56.984Z,101918.31
2019-06-26T08:03:04.914Z,101912.44
2019-06-26T08:04:11.776Z,101918.58
2019-06-26T08:05:20.370Z,101916.39
2019-06-26T08:06:27.256Z,101913.75
2019-06-26T08:07:35.702Z,101912.70
2019-06-26T08:08:42.433Z,101915.07
2019-06-26T08:09:50.037Z,101914.49
2019-06-26T08:10:56.893Z,101920.00
2019-06-26T08:12:04.584Z,101925.88
2019-06-26T08:13:11.743Z,101927.91
2019-06-26T08:14:19.904Z,101926.58
2019-06-26T08:15:26.839Z,101928.13
2019-06-26T08:16:34.639Z,101929.23
2019-06-26T08:17:41.433Z,101930.42
2019-06-26T08:18:49.051Z,101928.37
2019-06-26T08:19:55.829Z,101924.80
2019-06-26T08:21:12.173Z,101929.71
2019-06-26T08:22:13.081Z,101935.21
2019-06-26T08:23:20.967Z,101937.25
2019-06-26T08:24:27.767Z,101937.62
2019-06-26T08:25:35.456Z,101941.09
2019-06-26T08:26:42.600Z,101940.38
2019-06-26T08:27:50.576Z,101940.98
2019-06-26T08:28:57.882Z,101943.62
2019-06-26T08:30:06.860Z,101945.17
2019-06-26T08:31:13.612Z,101951.27
2019-06-26T08:32:21.775Z,101949.01
2019-06-26T08:33:28.940Z,101955.78
2019-06-26T08:34:36.988Z,101954.20
2019-06-26T08:35:43.975Z,101956.66
2019-06-26T08:36:51.925Z,101957.94
2019-06-26T08:38:09.960Z,101954.59
2019-06-26T08:39:09.935Z,101957.11
2019-06-26T08:40:17.018Z,101952.05
2019-06-26T08:41:24.888Z,101956.00
2019-06-26T08:42:32.487Z,101954.78
2019-06-26T08:43:40.014Z,101957.61
2019-06-26T08:44:47.103Z,101960.98
2019-06-26T08:45:55.026Z,101963.52
2019-06-26T08:47:02.344Z,101963.76
2019-06-26T08:48:22.916Z,101962.31
2019-06-26T08:49:25.306Z,101966.28
2019-06-26T08:50:27.899Z,101962.33
2019-06-26T08:51:35.566Z,101962.22
2019-06-26T08:52:43.398Z,101969.98
2019-06-26T08:53:50.564Z,101973.97
2019-06-26T08:54:59.074Z,101970.88
2019-06-26T08:56:07.180Z,101967.17
2019-06-26T08:57:15.458Z,101983.61
2019-06-26T08:58:22.246Z,101974.25
2019-06-26T08:59:30.343Z,101975.41
2019-06-26T09:00:37.143Z,101983.22
2019-06-26T09:01:44.687Z,101982.71
2019-06-26T09:02:51.473Z,101978.18
2019-06-26T09:03:59.127Z,101987.10
2019-06-26T09:05:07.374Z,101983.40
2019-06-26T09:06:14.916Z,101990.25
2019-06-26T09:07:21.675Z,101991.69
2019-06-26T09:08:29.568Z,101991.94
2019-06-26T09:09:36.673Z,101987.80
2019-06-26T09:10:45.416Z,101992.36
2019-06-26T09:11:52.273Z,101993.34
2019-06-26T09:13:00.119Z,101991.20
2019-06-26T09:14:07.223Z,101993.23
2019-06-26T09:16:32.279Z,101990.98
2019-06-26T09:17:39.837Z,101995.61
2019-06-26T09:18:46.638Z,101995.38
2019-06-26T09:19:54.596Z,102001.27
2019-06-26T09:21:01.894Z,102001.75
2019-06-26T09:22:10.419Z,101999.83
2019-06-26T09:23:17.488Z,102005.54
2019-06-26T09:24:25.398Z,101999.81
2019-06-26T09:25:32.147Z,102004.94
2019-06-26T09:26:40.162Z,102000.87
2019-06-26T09:27:47.096Z,102007.23
2019-06-26T09:28:54.945Z,102006.42
2019-06-26T09:30:01.769Z,102004.50
2019-06-26T09:31:10.111Z,102012.08
2019-06-26T09:32:17.014Z,102010.75
2019-06-26T09:33:24.972Z,102014.45
2019-06-26T09:34:32.154Z,102015.05
2019-06-26T09:35:40.390Z,102018.67
2019-06-26T09:36:47.584Z,102024.66
2019-06-26T09:37:55.784Z,102023.11
2019-06-26T09:39:02.584Z,102019.64
2019-06-26T09:40:10.922Z,102021.94
2019-06-26T09:41:18.140Z,102025.88
2019-06-26T09:42:26.936Z,102026.84
2019-06-26T09:43:33.723Z,102028.64
2019-06-26T09:44:41.954Z,102015.99
2019-06-26T09:45:49.215Z,102018.29
2019-06-26T09:46:56.774Z,102020.82
2019-06-26T09:48:03.609Z,102026.09
2019-06-26T09:49:11.676Z,102028.99
2019-06-26T09:50:18.939Z,102031.06
2019-06-26T09:51:26.808Z,102031.66
2019-06-26T09:52:33.965Z,102024.47
2019-06-26T09:53:47.157Z,102029.73
2019-06-26T09:54:50.161Z,102020.48
2019-06-26T09:55:57.690Z,102022.87
2019-06-26T09:57:04.880Z,102029.13
2019-06-26T09:58:13.560Z,102024.95
2019-06-26T09:59:20.656Z,102023.03
2019-06-26T10:00:28.796Z,102022.31
2019-06-26T10:01:35.880Z,102023.03
2019-06-26T10:02:43.906Z,102022.77
2019-06-26T10:03:51.142Z,102016.03
2019-06-26T10:04:59.026Z,102012.67
2019-06-26T10:06:05.773Z,102011.12
2019-06-26T10:07:13.727Z,102004.65
2019-06-26T10:08:20.481Z,102005.27
2019-06-26T10:09:28.005Z,102008.98
2019-06-26T10:10:34.813Z,102006.57
2019-06-26T10:11:43.122Z,102009.10
2019-06-26T10:12:49.938Z,102008.50
2019-06-26T10:13:57.507Z,102015.35
2019-06-26T10:15:04.872Z,102011.61
2019-06-26T10:16:13.701Z,102018.35
2019-06-26T10:17:22.654Z,102016.86
2019-06-26T10:18:30.177Z,102017.80
2019-06-26T10:19:37.380Z,102012.67
2019-06-26T10:20:45.201Z,102019.50
2019-06-26T10:21:51.927Z,102031.43
2019-06-26T10:23:00.139Z,102028.66
2019-06-26T10:24:07.144Z,102030.09
2019-06-26T10:25:15.565Z,102029.14
2019-06-26T10:26:22.640Z,102029.02
2019-06-26T10:27:30.544Z,102032.84
2019-06-26T10:28:37.411Z,102032.61
2019-06-26T10:29:45.120Z,102029.44
2019-06-26T10:30:51.882Z,102035.20
2019-06-26T10:31:59.833Z,102041.91
2019-06-26T10:33:06.654Z,102043.71
2019-06-26T10:34:14.364Z,102042.04
2019-06-26T10:35:21.533Z,102046.58
2019-06-26T10:36:29.416Z,102046.25
2019-06-26T10:37:36.489Z,102046.36
2019-06-26T10:38:44.080Z,102046.11
2019-06-26T10:39:51.882Z,102051.38
2019-06-26T10:40:59.748Z,102054.03
2019-06-26T10:42:07.182Z,102055.01
2019-06-26T10:43:14.874Z,102057.67
2019-06-26T10:44:21.648Z,102057.27
2019-06-26T10:45:29.626Z,102056.13
2019-06-26T10:46:36.383Z,102062.73
2019-06-26T10:47:44.701Z,102055.62
2019-06-26T10:48:51.454Z,102062.09
2019-06-26T10:49:58.992Z,102063.99
2019-06-26T10:51:06.486Z,102060.98
2019-06-26T10:52:14.139Z,102058.00
2019-06-26T10:53:20.914Z,102062.33
2019-06-26T10:54:29.095Z,102060.18
2019-06-26T10:55:35.898Z,102062.23
2019-06-26T10:56:44.044Z,102058.51
2019-06-26T10:57:50.775Z,102059.64
2019-06-26T10:58:58.319Z,102062.56
2019-06-26T11:00:06.173Z,102054.73
2019-06-26T11:01:14.525Z,102052.66
2019-06-26T11:02:21.635Z,102052.70
2019-06-26T11:03:29.260Z,102059.09
2019-06-26T11:04:36.007Z,102060.56
2019-06-26T11:05:44.419Z,102053.10
2019-06-26T11:06:51.165Z,102051.67
2019-06-26T11:07:58.799Z,102055.75
2019-06-26T11:09:07.812Z,102057.69
2019-06-26T11:10:17.167Z,102057.09
2019-06-26T11:11:23.957Z,102053.84
2019-06-26T11:12:31.485Z,102052.62
2019-06-26T11:13:38.701Z,102051.92
2019-06-26T11:14:46.568Z,102056.55
2019-06-26T11:15:53.308Z,102056.64
2019-06-26T11:17:00.845Z,102059.23
2019-06-26T11:18:08.072Z,102064.76
2019-06-26T11:19:16.094Z,102061.72
2019-06-26T11:20:22.936Z,102061.86
2019-06-26T11:21:30.450Z,102063.77
2019-06-26T11:22:37.275Z,102062.18
2019-06-26T11:23:44.821Z,102065.38
2019-06-26T11:24:51.560Z,102055.76
2019-06-26T11:25:59.367Z,102062.24
2019-06-26T11:27:06.140Z,102062.98
2019-06-26T11:28:14.073Z,102065.47
2019-06-26T11:29:20.883Z,102061.59
2019-06-26T11:30:30.344Z,102066.36
2019-06-26T11:31:37.872Z,102066.94
2019-06-26T11:32:46.081Z,102062.48
2019-06-26T11:33:52.895Z,102070.36
2019-06-26T11:35:00.720Z,102056.43
2019-06-26T11:36:07.486Z,102062.09
2019-06-26T11:37:15.436Z,102062.00
2019-06-26T11:38:22.547Z,102058.18
2019-06-26T11:39:30.646Z,102067.78
2019-06-26T11:40:37.819Z,102069.80
2019-06-26T11:41:45.503Z,102063.53
2019-06-26T11:42:52.602Z,102067.90
2019-06-26T11:44:00.513Z,102057.41
2019-06-26T11:45:08.998Z,102056.00
2019-06-26T11:46:17.178Z,102055.39
2019-06-26T11:47:24.337Z,102045.78
2019-06-26T11:48:31.957Z,102040.90
2019-06-26T11:49:39.064Z,102047.00
2019-06-26T11:50:47.000Z,102049.50
2019-06-26T11:51:53.867Z,102047.45
2019-06-26T11:53:01.833Z,102052.14
2019-06-26T11:54:09.790Z,102055.52
2019-06-26T11:55:18.665Z,102059.97
2019-06-26T11:56:25.952Z,102056.31
2019-06-26T11:57:33.454Z,102054.72
2019-06-26T11:58:40.670Z,102060.10
2019-06-26T11:59:48.632Z,102061.81
2019-06-26T12:00:55.936Z,102056.20
2019-06-26T12:02:03.910Z,102058.12
2019-06-26T12:03:13.242Z,102060.87
2019-06-26T12:04:20.003Z,102062.91
2019-06-26T12:05:27.118Z,102062.08
2019-06-26T12:06:34.644Z,102060.76
2019-06-26T12:07:42.001Z,102065.83
2019-06-26T12:08:49.538Z,102062.58
2019-06-26T12:09:56.789Z,102067.87
2019-06-26T12:11:04.641Z,102077.31
2019-06-26T12:12:12.351Z,102065.06
2019-06-26T12:13:20.037Z,102065.43
2019-06-26T12:14:27.109Z,102063.11
2019-06-26T12:15:34.653Z,102068.89
2019-06-26T12:16:42.312Z,102071.13
2019-06-26T12:17:50.259Z,102066.12
2019-06-26T12:18:57.074Z,102074.69
2019-06-26T12:20:17.893Z,102078.57
2019-06-26T12:21:13.633Z,102080.50
2019-06-26T12:22:21.264Z,102071.10
2019-06-26T12:23:28.018Z,102094.64
2019-06-26T12:24:35.541Z,102093.94
2019-06-26T12:25:43.170Z,102095.97
2019-06-26T12:26:50.725Z,102091.64
2019-06-26T12:27:57.471Z,102093.48
2019-06-26T12:29:05.057Z,102087.28
2019-06-26T12:30:14.017Z,102092.84
2019-06-26T12:31:21.614Z,102092.31
2019-06-26T12:32:28.693Z,102095.32
2019-06-26T12:33:36.221Z,102092.98
2019-06-26T12:34:45.193Z,102096.33
2019-06-26T12:35:52.961Z,102104.39
2019-06-26T12:37:00.218Z,102101.00
2019-06-26T12:38:08.152Z,102096.97
2019-06-26T12:39:15.071Z,102099.78
2019-06-26T12:40:22.999Z,102100.27
2019-06-26T12:41:29.729Z,102102.63
2019-06-26T12:42:37.886Z,102105.72
2019-06-26T12:43:45.168Z,102108.80
2019-06-26T12:44:52.740Z,102103.95
2019-06-26T12:45:59.534Z,102099.68
2019-06-26T12:47:07.443Z,102104.66
2019-06-26T12:48:16.230Z,102098.16
2019-06-26T12:49:23.733Z,102108.95
2019-06-26T12:50:35.941Z,102104.92
2019-06-26T12:51:41.173Z,102101.50
2019-06-26T12:52:48.032Z,102106.13